Aviation Digital Data Service (ADDS)

Output produced by METARs form (0515 UTC 24 September 2018)
found at http://www.aviationweather.gov/metar/data/
 
KAOO 240453Z AUTO 07005KT 6SM BR OVC007 16/13 A3029 RMK AO2 SLP256 T01560133 401670128 $
KAOO 240353Z AUTO 11003KT 8SM OVC009 16/13 A3029 RMK AO2 CIG 007V012 SLP256 T01560133 $
KAOO 240253Z AUTO 10004KT 8SM OVC007 16/13 A3028 RMK AO2 SLP254 T01560133 51013 $
KAOO 240153Z AUTO 07003KT 10SM OVC008 16/13 A3028 RMK AO2 SLP251 T01560133 $
KAOO 240144Z AUTO 00000KT 9SM OVC009 16/13 A3028 RMK AO2 T01560133 $
KAOO 240132Z AUTO 00000KT 6SM BR OVC010 15/13 A3027 RMK AO2 T01500133 $
KAOO 240053Z AUTO 00000KT 8SM BKN008 OVC017 15/13 A3026 RMK AO2 CIG 006V014 SLP248 T01500133 $
KAOO 240036Z AUTO 00000KT 7SM BKN009 BKN017 OVC038 15/13 A3026 RMK AO2 T01500133 $
KAOO 240013Z AUTO 00000KT 4SM BR FEW008 BKN028 OVC038 15/13 A3025 RMK AO2 T01500133 $
KAOO 232353Z AUTO 15004KT 7SM FEW013 OVC029 16/13 A3025 RMK AO2 SLP241 T01560128 10167 20156 51005 $
KAOO 232337Z AUTO 00000KT 10SM BKN029 OVC036 16/13 A3025 RMK AO2 T01560128 $
KAOO 232253Z AUTO 00000KT 10SM SCT036 OVC045 16/12 A3024 RMK AO2 SLP239 T01560122 $
KAOO 232234Z AUTO 14003KT 10SM SCT030 OVC036 16/12 A3024 RMK AO2 T01560122 $
KAOO 232153Z AUTO 17004KT 10SM FEW018 OVC028 16/12 A3024 RMK AO2 SLP239 T01560122 $
KAOO 232117Z AUTO 17004KT 10SM BKN029 OVC038 16/12 A3024 RMK AO2 T01610117 $
KAOO 232053Z AUTO 16005KT 10SM OVC040 16/12 A3023 RMK AO2 SLP236 T01610117 51001 $
KAOO 232013Z AUTO 15005KT 10SM SCT027 OVC033 17/11 A3023 RMK AO2 T01670111 $
KAOO 231953Z AUTO 00000KT 10SM BKN027 OVC035 17/11 A3023 RMK AO2 SLP235 T01670111 $
KAOO 231949Z AUTO 18004KT 10SM BKN027 OVC035 16/11 A3023 RMK AO2 $
KAOO 231853Z AUTO 13004KT 10SM FEW014 BKN040 OVC055 17/12 A3023 RMK AO2 SLP234 T01670117 $
KAOO 231753Z AUTO 17003KT 10SM SCT011 OVC050 16/12 A3024 RMK AO2 SLP239 T01610117 10161 20128 58003 $
KAOO 231741Z AUTO 00000KT 10SM SCT011 OVC050 16/12 A3024 RMK AO2 T01560117 $
KAOO 231734Z AUTO 11003KT 10SM BKN011 OVC050 16/12 A3024 RMK AO2 T01560117 $
KAOO 231703Z AUTO 16003KT 10SM SCT011 OVC050 16/12 A3025 RMK AO2 T01560117 $
KAOO 231653Z AUTO 15004KT 10SM BKN011 OVC055 16/12 A3025 RMK AO2 SLP241 T01560117 $
KAOO 231637Z AUTO 12005KT 10SM BKN011 OVC055 16/12 A3025 RMK AO2 T01560117 $
KAOO 231619Z AUTO 14004KT 10SM SCT011 OVC055 16/12 A3025 RMK AO2 T01560117 $
KAOO 231608Z AUTO 10004KT 10SM BKN011 OVC060 16/12 A3025 RMK AO2 T01560117 $
KAOO 231553Z AUTO VRB03KT 10SM SCT010 OVC060 16/12 A3025 RMK AO2 SLP242 T01560117 $
KAOO 231521Z AUTO 00000KT 10SM SCT009 OVC060 15/11 A3025 RMK AO2 T01500111 $
KAOO 231453Z AUTO 00000KT 10SM BKN008 OVC065 14/12 A3025 RMK AO2 CIG 007V011 SLP243 T01440117 53009 $
KAOO 231353Z AUTO 03003KT 10SM BKN006 14/11 A3024 RMK AO2 SLP241 T01390111 $
KAOO 231253Z AUTO 00000KT 10SM FEW003 13/12 A3022 RMK AO2 SLP234 T01330117 $
KAOO 231236Z AUTO 04003KT 10SM FEW004 SCT110 13/12 A3022 RMK AO2 T01330117 $
KAOO 231153Z AUTO 00000KT 10SM BKN110 13/11 A3022 RMK AO2 SLP234 60009 70010 T01280111 10133 20128 53003 $
KAOO 231053Z AUTO 00000KT 10SM FEW004 OVC110 13/11 A3021 RMK AO2 SLP230 T01280111 $
KAOO 231036Z AUTO 00000KT 10SM SCT003 OVC110 13/11 A3021 RMK AO2 T01280111 $
KAOO 230953Z AUTO 00000KT 10SM OVC110 13/11 A3021 RMK AO2 RAE33 SLP228 P0001 T01280111 $
KAOO 230853Z AUTO 03003KT 10SM -RA SCT090 OVC110 13/11 A3022 RMK AO2 SLP231 P0002 60008 T01280106 58007 $
KAOO 230753Z AUTO 00000KT 10SM -RA OVC100 13/11 A3023 RMK AO2 SLP233 P0003 T01280111 $
KAOO 230653Z AUTO 00000KT 10SM -RA OVC100 13/11 A3023 RMK AO2 RAB0558 SLP234 P0003 T01330111 $
KAOO 230553Z AUTO 00000KT 10SM OVC100 13/11 A3024 RMK AO2 RAE48 SLP238 P0001 60001 T01330106 10150 20133 55002 $
KAOO 230453Z AUTO 00000KT 10SM -RA BKN080 OVC110 14/11 A3023 RMK AO2 RAB52 SLP235 P0000 T01390111 402170133 $
KAOO 230353Z AUTO 02003KT 10SM FEW120 14/11 A3025 RMK AO2 SLP241 T01390106 $
KAOO 230253Z AUTO 00000KT 10SM CLR 14/09 A3025 RMK AO2 SLP240 T01390094 51006 $
KAOO 230153Z AUTO 04003KT 10SM CLR 14/09 A3024 RMK AO2 SLP240 T01440094 $
KAOO 230053Z AUTO 00000KT 10SM CLR 14/11 A3023 RMK AO2 SLP236 T01440111 $
KAOO 222353Z AUTO 04004KT 10SM CLR 15/11 A3023 RMK AO2 SLP233 T01500106 10194 20150 53003 $
KAOO 222253Z AUTO 05003KT 10SM CLR 16/11 A3022 RMK AO2 SLP230 T01610106 $
KAOO 222153Z AUTO 03005KT 10SM CLR 17/11 A3022 RMK AO2 SLP230 T01670106 $
KAOO 222053Z AUTO 03008KT 10SM BKN034 18/11 A3022 RMK AO2 SLP228 T01780111 55003 $
KAOO 221953Z AUTO 00000KT 10SM BKN032 19/12 A3021 RMK AO2 SLP223 T01890117 $
KAOO 221853Z AUTO VRB03KT 10SM CLR 19/11 A3022 RMK AO2 SLP224 T01890106 $
KAOO 221753Z AUTO 36007KT 10SM CLR 17/11 A3023 RMK AO2 SLP229 T01720106 10189 20167 58001 $
KAOO 240411Z 2404/2424 11003KT P6SM OVC009 
     FM240500 11003KT 6SM -DZ BR OVC008 
     FM241700 13008KT 3SM -RA BR OVC008